Time;durP1;ratioP1;P1;durP2;ratioP2;P2;SDS_P1;SDS_P2;PMS_P1;PMS_P2;Temp;Humidity;BMP_temperature;BMP_pressure;BME280_temperature;BME280_humidity;BME280_pressure;Samples;Min_cycle;Max_cycle;Signal;HPM_P1;HPM_P2
2023/09/06 00:00:33;;;;;;;60.27;55.90;;;;;;;;;;5023277;28;20121;-57
2023/09/06 00:02:59;;;;;;;51.05;47.42;;;;;;;;;;5016177;28;20053;-57
2023/09/06 00:05:25;;;;;;;54.83;50.88;;;;;;;;;;5027892;28;20051;-56
2023/09/06 00:07:50;;;;;;;149.93;138.68;;;;;;;;;;5018340;28;20390;-58
2023/09/06 00:10:15;;;;;;;275.48;256.48;;;;;;;;;;5019035;28;20072;-57
2023/09/06 00:12:41;;;;;;;69.20;64.35;;;;;;;;;;5020968;28;20041;-57
2023/09/06 00:15:08;;;;;;;141.55;131.57;;;;;;;;;;5020812;28;20042;-57
2023/09/06 00:17:37;;;;;;;35.47;32.65;;;;;;;;;;5019085;28;20091;-58
2023/09/06 00:20:05;;;;;;;93.07;86.07;;;;;;;;;;5015639;28;20500;-57
2023/09/06 00:22:31;;;;;;;97.63;89.65;;;;;;;;;;5018006;28;20028;-57
2023/09/06 00:24:57;;;;;;;62.65;57.63;;;;;;;;;;5016154;28;20022;-57
2023/09/06 00:27:22;;;;;;;222.98;208.00;;;;;;;;;;5014156;28;20026;-58
2023/09/06 00:29:48;;;;;;;62.50;58.20;;;;;;;;;;5020371;28;20167;-57
2023/09/06 00:32:13;;;;;;;72.30;67.40;;;;;;;;;;5030142;28;20037;-57
2023/09/06 00:34:38;;;;;;;78.88;73.43;;;;;;;;;;5024816;28;20128;-57
2023/09/06 00:37:03;;;;;;;202.73;189.00;;;;;;;;;;5018249;28;20044;-57
2023/09/06 00:39:30;;;;;;;104.65;96.75;;;;;;;;;;5019855;28;20018;-57
2023/09/06 00:41:55;;;;;;;106.43;98.75;;;;;;;;;;5029605;28;20037;-58
2023/09/06 00:44:21;;;;;;;55.07;51.13;;;;;;;;;;5024317;28;20017;-58
2023/09/06 00:46:46;;;;;;;52.42;48.72;;;;;;;;;;5023732;28;20022;-58
2023/09/06 00:49:11;;;;;;;38.73;35.93;;;;;;;;;;5028078;28;20409;-58
2023/09/06 00:51:36;;;;;;;157.77;147.00;;;;;;;;;;5019293;28;20460;-57
2023/09/06 00:54:02;;;;;;;45.10;41.97;;;;;;;;;;5017400;28;20108;-58
2023/09/06 00:56:27;;;;;;;47.85;44.15;;;;;;;;;;5029279;28;20072;-58
2023/09/06 00:58:53;;;;;;;76.63;71.72;;;;;;;;;;5024258;28;20018;-58
2023/09/06 01:01:19;;;;;;;42.42;39.17;;;;;;;;;;5024477;28;20045;-57
2023/09/06 01:03:44;;;;;;;50.17;46.67;;;;;;;;;;5023601;28;20068;-57
2023/09/06 01:06:21;;;;;;;172.90;160.77;;;;;;;;;;5019784;28;20034;-57
2023/09/06 01:08:55;;;;;;;61.88;57.80;;;;;;;;;;5019521;28;20026;-57
2023/09/06 01:11:21;;;;;;;51.67;48.35;;;;;;;;;;5026187;28;20022;-58
2023/09/06 01:13:48;;;;;;;52.85;49.25;;;;;;;;;;5023676;28;20028;-57
2023/09/06 01:16:15;;;;;;;99.20;91.53;;;;;;;;;;5019802;28;20439;-58
2023/09/06 01:18:42;;;;;;;38.10;35.25;;;;;;;;;;5026871;28;20018;-58
2023/09/06 01:21:10;;;;;;;46.42;42.90;;;;;;;;;;5019894;28;20021;-57
2023/09/06 01:23:39;;;;;;;66.47;61.75;;;;;;;;;;5017950;28;20104;-58
2023/09/06 01:26:05;;;;;;;42.97;39.78;;;;;;;;;;5022828;28;20183;-58
2023/09/06 01:28:31;;;;;;;120.60;112.05;;;;;;;;;;5024567;28;20033;-57
2023/09/06 01:30:57;;;;;;;85.50;79.63;;;;;;;;;;5017379;28;20030;-58
2023/09/06 01:33:22;;;;;;;122.40;113.15;;;;;;;;;;5023950;28;20013;-58
2023/09/06 01:35:48;;;;;;;116.05;107.57;;;;;;;;;;5018737;28;20022;-58
2023/09/06 01:38:14;;;;;;;217.40;201.23;;;;;;;;;;5024616;28;20017;-58
2023/09/06 01:40:39;;;;;;;66.30;61.45;;;;;;;;;;5020740;28;20021;-58
2023/09/06 01:43:04;;;;;;;58.67;54.70;;;;;;;;;;5020842;28;20116;-58
2023/09/06 01:45:30;;;;;;;72.07;66.55;;;;;;;;;;5023773;28;20050;-58
2023/09/06 01:47:55;;;;;;;151.13;140.70;;;;;;;;;;5027520;28;20461;-57
2023/09/06 01:50:21;;;;;;;41.72;38.67;;;;;;;;;;5013022;28;20494;-58
2023/09/06 01:52:46;;;;;;;58.30;54.30;;;;;;;;;;5023334;28;20021;-59
2023/09/06 01:55:12;;;;;;;29.73;27.42;;;;;;;;;;5024669;28;20021;-58
2023/09/06 01:57:37;;;;;;;54.13;50.30;;;;;;;;;;5025179;28;20036;-58
2023/09/06 02:00:16;;;;;;;67.43;62.63;;;;;;;;;;5025587;28;20057;-58
2023/09/06 02:02:43;;;;;;;85.95;80.00;;;;;;;;;;5016427;28;20029;-57
2023/09/06 02:05:08;;;;;;;108.18;100.65;;;;;;;;;;5011282;28;20026;-58
2023/09/06 02:07:34;;;;;;;92.93;86.33;;;;;;;;;;5013414;28;20030;-58
2023/09/06 02:09:59;;;;;;;182.00;169.10;;;;;;;;;;5027411;28;20354;-57
2023/09/06 02:12:24;;;;;;;42.17;38.97;;;;;;;;;;5024403;28;20415;-57
2023/09/06 02:14:52;;;;;;;44.88;41.58;;;;;;;;;;5016404;28;20481;-58
2023/09/06 02:17:18;;;;;;;81.07;75.68;;;;;;;;;;5017856;28;20026;-57
2023/09/06 02:19:43;;;;;;;53.50;49.65;;;;;;;;;;5022061;28;20028;-58
2023/09/06 02:22:08;;;;;;;52.83;49.30;;;;;;;;;;5022504;28;20017;-58
2023/09/06 02:24:34;;;;;;;58.90;54.63;;;;;;;;;;5017837;28;21831;-57
2023/09/06 02:26:59;;;;;;;48.85;45.20;;;;;;;;;;5019813;28;20108;-57
2023/09/06 02:29:26;;;;;;;62.03;57.20;;;;;;;;;;5020107;28;20053;-59
2023/09/06 02:31:51;;;;;;;73.57;68.22;;;;;;;;;;5014981;28;20030;-58
2023/09/06 02:34:16;;;;;;;307.73;285.97;;;;;;;;;;5022978;28;20024;-58
2023/09/06 02:36:41;;;;;;;62.55;58.25;;;;;;;;;;5019311;28;20488;-58
2023/09/06 02:39:06;;;;;;;75.87;70.77;;;;;;;;;;5018170;28;20022;-59
2023/09/06 02:41:32;;;;;;;84.28;78.55;;;;;;;;;;5025545;28;20030;-58
2023/09/06 02:43:57;;;;;;;37.13;34.35;;;;;;;;;;5018762;28;20021;-58
2023/09/06 02:46:23;;;;;;;65.35;60.85;;;;;;;;;;5020290;28;20610;-58
2023/09/06 02:48:50;;;;;;;56.55;52.42;;;;;;;;;;5022948;28;20025;-57
2023/09/06 02:51:15;;;;;;;153.00;141.70;;;;;;;;;;5018205;28;20022;-58
2023/09/06 02:53:44;;;;;;;52.85;48.97;;;;;;;;;;5025905;28;20084;-58
2023/09/06 02:56:10;;;;;;;53.92;50.00;;;;;;;;;;5017234;28;20030;-59
2023/09/06 02:58:37;;;;;;;204.80;190.05;;;;;;;;;;5022186;28;20460;-58
2023/09/06 03:01:06;;;;;;;79.75;73.97;;;;;;;;;;5024388;28;20096;-58
2023/09/06 03:03:31;;;;;;;79.25;73.22;;;;;;;;;;5022796;28;20105;-58
2023/09/06 03:05:57;;;;;;;128.02;119.05;;;;;;;;;;5026123;28;20022;-57
2023/09/06 03:08:25;;;;;;;75.50;70.13;;;;;;;;;;5026327;28;20021;-57
2023/09/06 03:10:52;;;;;;;154.30;143.10;;;;;;;;;;5019761;28;20022;-59
2023/09/06 03:13:20;;;;;;;169.88;158.32;;;;;;;;;;5014975;28;20470;-58
2023/09/06 03:15:45;;;;;;;153.50;142.30;;;;;;;;;;5020405;28;20026;-58
2023/09/06 03:18:10;;;;;;;177.25;164.23;;;;;;;;;;5024265;28;20020;-58
2023/09/06 03:20:45;;;;;;;53.23;49.03;;;;;;;;;;5018361;28;20025;-58
2023/09/06 03:23:17;;;;;;;90.65;84.63;;;;;;;;;;5019899;28;20068;-57
2023/09/06 03:25:42;;;;;;;93.60;87.22;;;;;;;;;;5024673;28;20025;-58
2023/09/06 03:28:08;;;;;;;410.42;378.58;;;;;;;;;;5028578;28;20089;-58
2023/09/06 03:30:33;;;;;;;115.32;107.05;;;;;;;;;;5020135;28;20247;-57
2023/09/06 03:32:59;;;;;;;69.45;64.40;;;;;;;;;;5017341;28;20076;-57
2023/09/06 03:35:24;;;;;;;55.67;51.72;;;;;;;;;;5021148;28;20026;-58
2023/09/06 03:37:52;;;;;;;101.70;94.43;;;;;;;;;;5020046;28;20642;-58
2023/09/06 03:40:25;;;;;;;99.78;92.60;;;;;;;;;;5024616;28;20018;-57
2023/09/06 03:42:51;;;;;;;81.82;75.78;;;;;;;;;;5025905;28;20610;-57
2023/09/06 03:45:21;;;;;;;67.03;62.20;;;;;;;;;;5022446;28;20022;-57
2023/09/06 03:47:46;;;;;;;59.63;55.40;;;;;;;;;;5020517;28;20021;-57
2023/09/06 03:50:12;;;;;;;52.03;48.37;;;;;;;;;;5026551;28;20018;-58
2023/09/06 03:52:39;;;;;;;53.63;49.92;;;;;;;;;;5023401;28;20346;-58
2023/09/06 03:55:05;;;;;;;93.13;87.03;;;;;;;;;;5022071;28;20033;-58
2023/09/06 03:57:31;;;;;;;76.60;71.28;;;;;;;;;;5030934;28;20021;-58
2023/09/06 03:59:56;;;;;;;225.00;209.18;;;;;;;;;;5022147;28;20388;-58
2023/09/06 04:02:27;;;;;;;87.43;81.93;;;;;;;;;;5016152;28;20017;-57
2023/09/06 04:04:52;;;;;;;79.32;73.30;;;;;;;;;;5027069;28;20083;-57
2023/09/06 04:07:18;;;;;;;174.75;162.88;;;;;;;;;;5018558;28;20054;-57
2023/09/06 04:09:43;;;;;;;266.43;245.63;;;;;;;;;;5021983;28;20040;-57
2023/09/06 04:12:08;;;;;;;89.43;83.13;;;;;;;;;;5024047;28;20460;-60
2023/09/06 04:14:38;;;;;;;281.27;259.63;;;;;;;;;;5017834;28;20026;-56
2023/09/06 04:17:07;;;;;;;171.10;158.55;;;;;;;;;;5026377;28;20115;-58
2023/09/06 04:19:33;;;;;;;182.13;168.27;;;;;;;;;;5015834;28;20029;-57
2023/09/06 04:21:59;;;;;;;109.10;101.63;;;;;;;;;;5023835;28;20117;-57
2023/09/06 04:24:24;;;;;;;271.43;251.33;;;;;;;;;;5019278;28;20113;-58
2023/09/06 04:26:49;;;;;;;204.30;188.50;;;;;;;;;;5013881;28;20043;-57
2023/09/06 04:29:14;;;;;;;123.27;114.57;;;;;;;;;;5023743;28;20110;-57
2023/09/06 04:31:41;;;;;;;122.50;113.70;;;;;;;;;;5018379;28;20120;-57
2023/09/06 04:34:06;;;;;;;107.45;100.55;;;;;;;;;;5035149;28;20013;-58
2023/09/06 04:36:31;;;;;;;208.77;194.03;;;;;;;;;;5019815;28;20044;-57
2023/09/06 04:38:58;;;;;;;98.97;91.97;;;;;;;;;;5019159;28;20448;-56
2023/09/06 04:41:23;;;;;;;90.38;84.10;;;;;;;;;;5019836;28;20208;-56
2023/09/06 04:43:48;;;;;;;96.20;89.40;;;;;;;;;;5017801;28;20144;-57
2023/09/06 04:46:13;;;;;;;311.67;288.17;;;;;;;;;;5013218;28;20608;-57
2023/09/06 04:48:39;;;;;;;121.83;113.03;;;;;;;;;;5022872;28;20113;-57
2023/09/06 04:51:05;;;;;;;142.88;131.80;;;;;;;;;;5020604;28;20087;-56
2023/09/06 04:53:30;;;;;;;91.53;85.15;;;;;;;;;;5021673;28;20040;-57
2023/09/06 04:55:55;;;;;;;234.67;216.57;;;;;;;;;;5022036;28;20026;-58
2023/09/06 04:58:20;;;;;;;129.95;121.32;;;;;;;;;;5013754;28;20026;-58
2023/09/06 05:00:49;;;;;;;229.52;212.88;;;;;;;;;;5020641;28;20021;-57
2023/09/06 05:03:17;;;;;;;172.48;159.80;;;;;;;;;;5023859;28;20128;-58
2023/09/06 05:05:43;;;;;;;164.45;152.70;;;;;;;;;;5011874;28;20055;-57
2023/09/06 05:08:08;;;;;;;182.52;170.60;;;;;;;;;;5013865;28;20477;-57
2023/09/06 05:10:35;;;;;;;216.98;201.07;;;;;;;;;;5013477;28;20592;-57
2023/09/06 05:13:00;;;;;;;113.57;105.63;;;;;;;;;;5023638;28;20120;-57
2023/09/06 05:15:25;;;;;;;117.13;109.00;;;;;;;;;;5026017;28;20108;-57
2023/09/06 05:17:50;;;;;;;111.23;103.93;;;;;;;;;;5025714;28;20037;-57
2023/09/06 05:20:35;;;;;;;124.40;115.73;;;;;;;;;;5024159;28;20014;-57
2023/09/06 05:23:02;;;;;;;138.82;129.48;;;;;;;;;;5028668;28;20079;-57
2023/09/06 05:25:27;;;;;;;150.73;140.23;;;;;;;;;;5030736;28;20500;-57
2023/09/06 05:27:57;;;;;;;131.20;122.00;;;;;;;;;;5028331;28;20021;-57
2023/09/06 05:30:22;;;;;;;81.80;76.00;;;;;;;;;;5013796;28;20625;-57
2023/09/06 05:32:47;;;;;;;144.53;134.53;;;;;;;;;;5042830;28;20033;-58
2023/09/06 05:35:13;;;;;;;184.57;170.93;;;;;;;;;;5051127;28;20465;-58
2023/09/06 05:37:39;;;;;;;94.40;87.63;;;;;;;;;;5019742;28;20009;-58
2023/09/06 05:40:05;;;;;;;82.35;76.20;;;;;;;;;;5040408;28;20400;-58
2023/09/06 05:42:30;;;;;;;275.58;255.02;;;;;;;;;;5016995;28;20063;-57
2023/09/06 05:44:56;;;;;;;129.18;120.03;;;;;;;;;;5017370;28;20040;-56
2023/09/06 05:47:21;;;;;;;291.58;270.83;;;;;;;;;;5034687;28;20085;-57
2023/09/06 05:49:48;;;;;;;116.00;107.27;;;;;;;;;;5042531;28;20036;-57
2023/09/06 05:52:13;;;;;;;153.98;142.55;;;;;;;;;;5044560;28;20051;-57
2023/09/06 05:54:38;;;;;;;120.20;111.90;;;;;;;;;;5029970;28;20116;-58
2023/09/06 05:57:05;;;;;;;130.53;120.77;;;;;;;;;;5022206;28;20029;-57
2023/09/06 05:59:30;;;;;;;132.00;122.80;;;;;;;;;;5025925;28;20388;-58
2023/09/06 06:01:55;;;;;;;271.23;249.77;;;;;;;;;;5028767;28;20018;-57
2023/09/06 06:04:20;;;;;;;178.10;164.83;;;;;;;;;;5030288;28;20026;-58
2023/09/06 06:06:47;;;;;;;156.17;144.53;;;;;;;;;;5022817;28;20022;-58
2023/09/06 06:09:15;;;;;;;188.32;174.43;;;;;;;;;;5020240;28;20037;-58
2023/09/06 06:11:40;;;;;;;299.45;275.98;;;;;;;;;;5026410;28;20030;-58
2023/09/06 06:14:05;;;;;;;103.13;95.17;;;;;;;;;;5028122;28;20097;-57
2023/09/06 06:16:30;;;;;;;166.03;154.70;;;;;;;;;;5034013;28;20022;-58
2023/09/06 06:18:56;;;;;;;113.43;105.23;;;;;;;;;;5018567;28;20025;-57
2023/09/06 06:21:21;;;;;;;358.63;328.88;;;;;;;;;;5023854;28;20024;-57
2023/09/06 06:23:47;;;;;;;155.73;144.50;;;;;;;;;;5017819;28;20112;-57
2023/09/06 06:26:14;;;;;;;201.02;184.80;;;;;;;;;;5021151;28;20090;-57
2023/09/06 06:28:39;;;;;;;183.32;169.65;;;;;;;;;;5018912;28;20030;-58
2023/09/06 06:31:04;;;;;;;261.67;242.20;;;;;;;;;;5013642;28;20030;-57
2023/09/06 06:33:29;;;;;;;245.93;226.70;;;;;;;;;;5021344;28;20045;-58
2023/09/06 06:35:54;;;;;;;117.77;108.80;;;;;;;;;;5030153;28;20029;-57
2023/09/06 06:38:20;;;;;;;200.87;186.27;;;;;;;;;;5029003;28;20159;-57
2023/09/06 06:40:45;;;;;;;208.75;194.23;;;;;;;;;;5019135;28;20400;-57
2023/09/06 06:43:11;;;;;;;226.30;208.50;;;;;;;;;;5029143;28;20087;-58
2023/09/06 06:45:36;;;;;;;376.95;342.80;;;;;;;;;;5047691;28;20017;-57
2023/09/06 06:48:02;;;;;;;292.27;267.97;;;;;;;;;;5021550;28;20045;-58
2023/09/06 06:50:27;;;;;;;343.90;315.00;;;;;;;;;;5026869;28;20053;-58
2023/09/06 06:52:52;;;;;;;203.38;187.35;;;;;;;;;;5019748;28;20440;-57
2023/09/06 06:55:17;;;;;;;181.40;169.13;;;;;;;;;;5022041;28;20056;-58
2023/09/06 06:57:42;;;;;;;354.77;327.07;;;;;;;;;;5025804;28;20052;-58
2023/09/06 07:00:11;;;;;;;163.57;151.63;;;;;;;;;;5025140;28;20473;-58
2023/09/06 07:02:36;;;;;;;144.43;134.00;;;;;;;;;;5033146;28;20459;-58
2023/09/06 07:05:01;;;;;;;322.63;295.90;;;;;;;;;;5033750;28;20057;-58
2023/09/06 07:07:26;;;;;;;259.35;237.30;;;;;;;;;;5031199;28;20467;-57
2023/09/06 07:09:52;;;;;;;181.83;167.80;;;;;;;;;;5020263;28;20420;-58
2023/09/06 07:12:17;;;;;;;200.97;186.97;;;;;;;;;;5040612;28;20025;-60
2023/09/06 07:14:42;;;;;;;175.63;163.03;;;;;;;;;;5053420;28;20017;-58
2023/09/06 07:17:07;;;;;;;221.20;204.57;;;;;;;;;;5053280;28;20037;-58
2023/09/06 07:19:33;;;;;;;185.13;171.00;;;;;;;;;;5052443;28;20013;-58
2023/09/06 07:22:00;;;;;;;249.00;229.55;;;;;;;;;;5050523;28;20468;-58
2023/09/06 07:24:25;;;;;;;359.77;329.13;;;;;;;;;;5021404;28;20033;-58
2023/09/06 07:26:50;;;;;;;182.87;169.17;;;;;;;;;;5037957;28;20392;-58
2023/09/06 07:29:17;;;;;;;266.17;243.70;;;;;;;;;;5052630;28;20013;-58
2023/09/06 07:31:42;;;;;;;251.45;232.30;;;;;;;;;;5052917;28;20021;-57
2023/09/06 07:34:08;;;;;;;240.57;221.33;;;;;;;;;;5053203;28;20055;-57
2023/09/06 07:36:33;;;;;;;244.20;223.00;;;;;;;;;;5044189;28;20017;-57
2023/09/06 07:38:58;;;;;;;403.17;370.52;;;;;;;;;;5017294;28;20045;-57
2023/09/06 07:41:25;;;;;;;324.00;297.37;;;;;;;;;;5033480;28;20025;-56
2023/09/06 07:43:51;;;;;;;341.70;313.25;;;;;;;;;;5045137;28;20025;-57
2023/09/06 07:46:16;;;;;;;212.52;196.50;;;;;;;;;;5053003;28;20017;-57
2023/09/06 07:48:41;;;;;;;287.63;262.87;;;;;;;;;;5052541;28;20009;-57
2023/09/06 07:51:07;;;;;;;231.05;212.57;;;;;;;;;;5048061;28;20026;-57
2023/09/06 07:53:33;;;;;;;405.02;369.40;;;;;;;;;;5024199;28;20025;-58
2023/09/06 07:55:58;;;;;;;327.63;300.67;;;;;;;;;;5045634;28;20021;-58
2023/09/06 07:58:23;;;;;;;312.33;285.83;;;;;;;;;;5052355;28;20028;-57
2023/09/06 08:00:49;;;;;;;381.17;351.37;;;;;;;;;;5051195;28;21074;-58
2023/09/06 08:03:15;;;;;;;273.55;251.45;;;;;;;;;;5052556;28;20031;-57
2023/09/06 08:05:40;;;;;;;290.70;265.77;;;;;;;;;;5042895;28;20400;-58
2023/09/06 08:08:06;;;;;;;269.17;244.87;;;;;;;;;;5022168;28;20057;-58
2023/09/06 08:10:31;;;;;;;205.57;188.25;;;;;;;;;;5033394;28;20112;-57
2023/09/06 08:12:57;;;;;;;325.15;299.30;;;;;;;;;;5052848;28;20029;-58
2023/09/06 08:15:23;;;;;;;241.30;218.17;;;;;;;;;;5052821;28;20024;-58
2023/09/06 08:17:48;;;;;;;236.40;218.27;;;;;;;;;;5052443;28;20013;-58
2023/09/06 08:20:14;;;;;;;341.87;311.47;;;;;;;;;;5047845;28;20029;-58
2023/09/06 08:22:40;;;;;;;379.60;349.55;;;;;;;;;;5022764;28;20025;-58
2023/09/06 08:25:05;;;;;;;;;;;;;;;;;;5032237;28;20028;-57
2023/09/06 08:27:31;;;;;;;511.27;469.13;;;;;;;;;;5023959;28;19906;-57
2023/09/06 08:29:56;;;;;;;318.13;291.57;;;;;;;;;;5032222;28;20025;-57
2023/09/06 08:32:21;;;;;;;432.47;394.00;;;;;;;;;;5031934;28;20045;-58
2023/09/06 08:34:46;;;;;;;328.70;298.90;;;;;;;;;;5031146;28;20025;-57
2023/09/06 08:37:11;;;;;;;401.58;365.98;;;;;;;;;;5030336;28;20440;-58
2023/09/06 08:39:36;;;;;;;296.87;271.33;;;;;;;;;;5050212;28;20024;-59
2023/09/06 08:42:03;;;;;;;297.95;274.63;;;;;;;;;;5035007;28;20021;-58
2023/09/06 08:44:30;;;;;;;531.10;490.02;;;;;;;;;;5029722;28;20117;-57
2023/09/06 08:46:57;;;;;;;311.23;286.90;;;;;;;;;;5043494;28;20044;-58
2023/09/06 08:49:22;;;;;;;;;;;;;;;;;;5044238;28;20029;-58
2023/09/06 08:51:48;;;;;;;301.23;276.23;;;;;;;;;;5023554;28;19909;-58
2023/09/06 08:54:14;;;;;;;365.75;336.27;;;;;;;;;;5046793;28;20040;-57
2023/09/06 08:56:39;;;;;;;426.02;388.13;;;;;;;;;;5051467;28;20515;-58
2023/09/06 08:59:05;;;;;;;399.20;364.33;;;;;;;;;;5021388;28;20166;-57
2023/09/06 09:01:30;;;;;;;444.25;402.63;;;;;;;;;;5040742;28;20013;-58
2023/09/06 09:03:55;;;;;;;333.57;307.73;;;;;;;;;;5039349;28;20025;-57
2023/09/06 09:06:20;;;;;;;500.55;456.77;;;;;;;;;;5030497;28;20071;-57
2023/09/06 09:08:46;;;;;;;495.57;450.03;;;;;;;;;;5050710;28;20025;-58
2023/09/06 09:11:12;;;;;;;415.70;376.90;;;;;;;;;;5051281;28;20447;-58
2023/09/06 09:13:37;;;;;;;507.58;458.33;;;;;;;;;;5051377;28;20021;-58
2023/09/06 09:16:06;;;;;;;555.03;501.87;;;;;;;;;;5043186;28;20021;-58
2023/09/06 09:18:31;;;;;;;480.17;435.98;;;;;;;;;;5037461;28;20025;-57
2023/09/06 09:20:57;;;;;;;462.13;422.30;;;;;;;;;;5022293;28;20024;-58
2023/09/06 09:23:22;;;;;;;328.50;301.07;;;;;;;;;;5046282;28;20614;-58
2023/09/06 09:25:50;;;;;;;426.70;388.03;;;;;;;;;;5049610;28;20439;-58
2023/09/06 09:28:16;;;;;;;399.98;364.13;;;;;;;;;;5050770;28;20095;-58
2023/09/06 09:30:41;;;;;;;400.73;361.05;;;;;;;;;;5042827;28;20116;-57
2023/09/06 09:33:06;;;;;;;327.45;301.77;;;;;;;;;;5029388;28;20393;-58
2023/09/06 09:35:32;;;;;;;518.57;474.67;;;;;;;;;;5018961;28;20381;-57
2023/09/06 09:37:59;;;;;;;336.05;304.65;;;;;;;;;;5025560;28;20108;-57
2023/09/06 09:40:32;;;;;;;360.95;328.05;;;;;;;;;;5036296;28;20032;-58
2023/09/06 09:42:58;;;;;;;592.35;542.13;;;;;;;;;;5018900;28;20064;-58
2023/09/06 09:45:24;;;;;;;540.75;496.08;;;;;;;;;;5011414;28;20067;-63
2023/09/06 09:47:50;;;;;;;508.65;460.67;;;;;;;;;;5022755;28;20036;-58
2023/09/06 09:50:16;;;;;;;266.63;241.07;;;;;;;;;;5023774;28;20025;-57
2023/09/06 09:52:42;;;;;;;370.02;337.95;;;;;;;;;;5028389;28;20028;-56
2023/09/06 09:55:08;;;;;;;384.20;350.38;;;;;;;;;;5026230;28;20027;-58
2023/09/06 09:57:35;;;;;;;511.88;468.27;;;;;;;;;;5050340;28;20037;-58
2023/09/06 10:00:00;;;;;;;391.80;355.08;;;;;;;;;;5046530;28;20090;-58
2023/09/06 10:02:26;;;;;;;337.27;310.40;;;;;;;;;;5020422;28;20468;-58
2023/09/06 10:04:52;;;;;;;407.83;373.48;;;;;;;;;;5030214;28;20083;-58
2023/09/06 10:07:19;;;;;;;552.42;507.10;;;;;;;;;;5030699;28;20025;-58
2023/09/06 10:09:46;;;;;;;368.92;339.63;;;;;;;;;;5029897;28;20026;-58
2023/09/06 10:12:14;;;;;;;422.48;387.40;;;;;;;;;;5030259;28;20029;-58
2023/09/06 10:14:40;;;;;;;467.38;428.55;;;;;;;;;;5022266;28;20029;-59
2023/09/06 10:17:06;;;;;;;630.60;575.05;;;;;;;;;;5028711;28;20019;-57
2023/09/06 10:19:31;;;;;;;424.08;387.67;;;;;;;;;;5021963;28;20021;-58
2023/09/06 10:21:56;;;;;;;;;;;;;;;;;;5038020;28;20047;-58
2023/09/06 10:24:22;;;;;;;437.38;398.80;;;;;;;;;;5049827;28;19916;-58
2023/09/06 10:26:48;;;;;;;471.48;430.17;;;;;;;;;;5027570;28;20021;-57
2023/09/06 10:29:13;;;;;;;;;;;;;;;;;;5021953;28;20053;-57
2023/09/06 10:31:48;;;;;;;371.88;341.75;;;;;;;;;;5025783;28;19929;-61
2023/09/06 10:34:13;;;;;;;506.10;463.58;;;;;;;;;;5022434;28;20520;-57
2023/09/06 10:36:51;;;;;;;504.50;456.40;;;;;;;;;;5031849;28;20052;-57
2023/09/06 10:39:16;;;;;;;433.65;395.20;;;;;;;;;;5051657;28;20013;-57
2023/09/06 10:42:02;;;;;;;465.57;422.67;;;;;;;;;;5051555;28;20105;-57
2023/09/06 10:44:29;;;;;;;382.90;346.98;;;;;;;;;;5017676;28;20471;-57
2023/09/06 10:46:54;;;;;;;352.75;323.05;;;;;;;;;;5033435;28;20013;-57
2023/09/06 10:49:25;;;;;;;377.70;345.73;;;;;;;;;;5024937;28;20028;-57
2023/09/06 10:51:57;;;;;;;391.30;355.33;;;;;;;;;;5039249;28;20495;-57
2023/09/06 10:54:23;;;;;;;476.52;434.63;;;;;;;;;;5053988;28;20036;-56
2023/09/06 10:56:58;;;;;;;542.05;495.58;;;;;;;;;;5030374;28;20100;-58
2023/09/06 10:59:23;;;;;;;413.70;375.27;;;;;;;;;;5015436;28;20029;-58
2023/09/06 11:02:07;;;;;;;614.50;552.60;;;;;;;;;;5026717;28;20395;-56
2023/09/06 11:04:32;;;;;;;561.05;511.17;;;;;;;;;;5030461;28;20033;-57
2023/09/06 11:06:57;;;;;;;370.57;335.20;;;;;;;;;;5046813;28;20025;-57
2023/09/06 11:09:25;;;;;;;;;;;;;;;;;;5053321;28;20021;-58
2023/09/06 11:11:51;;;;;;;566.75;516.17;;;;;;;;;;5039027;28;19967;-57
2023/09/06 11:14:16;;;;;;;438.92;399.60;;;;;;;;;;5021669;28;20496;-57
2023/09/06 11:16:45;;;;;;;593.23;541.37;;;;;;;;;;5013634;28;20065;-58
2023/09/06 11:19:11;;;;;;;499.23;452.67;;;;;;;;;;5026713;28;20021;-57
2023/09/06 11:21:36;;;;;;;540.70;492.00;;;;;;;;;;5043470;28;20147;-57
2023/09/06 11:24:01;;;;;;;;;;;;;;;;;;5053580;28;20395;-57
2023/09/06 11:26:34;;;;;;;461.52;423.92;;;;;;;;;;5053351;28;19905;-58
2023/09/06 11:29:03;;;;;;;299.48;273.88;;;;;;;;;;5030330;28;20014;-57
2023/09/06 11:31:33;;;;;;;592.55;531.47;;;;;;;;;;5023015;28;20516;-57
2023/09/06 11:34:03;;;;;;;520.88;474.27;;;;;;;;;;5021250;28;20531;-58
2023/09/06 11:36:32;;;;;;;457.65;415.35;;;;;;;;;;5025160;28;20021;-58
2023/09/06 11:38:57;;;;;;;400.17;359.60;;;;;;;;;;5033710;28;20032;-57
2023/09/06 11:41:23;;;;;;;541.90;487.38;;;;;;;;;;5031331;28;20477;-57
2023/09/06 11:43:51;;;;;;;;;;;;;;;;;;5053119;28;20387;-57
2023/09/06 11:46:17;;;;;;;458.38;418.00;;;;;;;;;;5052753;28;20004;-57
2023/09/06 11:48:43;;;;;;;587.78;538.60;;;;;;;;;;5031472;28;20500;-58
2023/09/06 11:51:10;;;;;;;582.75;533.90;;;;;;;;;;5025208;28;20430;-58
2023/09/06 11:53:43;;;;;;;509.55;463.58;;;;;;;;;;5049098;28;20027;-58
2023/09/06 11:56:11;;;;;;;687.85;627.15;;;;;;;;;;5050984;28;20045;-57
2023/09/06 11:58:42;;;;;;;504.77;457.63;;;;;;;;;;5051831;28;20031;-57
2023/09/06 12:01:08;;;;;;;533.50;483.15;;;;;;;;;;5045631;28;20064;-57
2023/09/06 12:03:35;;;;;;;473.20;428.13;;;;;;;;;;5026642;28;20057;-57
2023/09/06 12:06:00;;;;;;;519.17;469.63;;;;;;;;;;5032091;28;20021;-56
2023/09/06 12:08:27;;;;;;;;;;;;;;;;;;5026114;28;20068;-57
2023/09/06 12:10:54;;;;;;;630.33;574.83;;;;;;;;;;5028357;28;19927;-57
2023/09/06 12:13:37;;;;;;;576.33;527.75;;;;;;;;;;5024143;28;20100;-59
2023/09/06 12:16:04;;;;;;;655.53;599.63;;;;;;;;;;5031342;28;20017;-59
2023/09/06 12:18:29;;;;;;;667.25;605.20;;;;;;;;;;5021132;28;20040;-58
2023/09/06 12:20:54;;;;;;;586.27;533.03;;;;;;;;;;5028437;28;20571;-59
2023/09/06 12:23:25;;;;;;;478.65;433.40;;;;;;;;;;5026706;28;20704;-57
2023/09/06 12:25:51;;;;;;;512.78;465.15;;;;;;;;;;5009452;28;20021;-59
2023/09/06 12:28:16;;;;;;;656.27;598.37;;;;;;;;;;5023423;28;20093;-57
2023/09/06 12:30:41;;;;;;;;;;;;;;;;;;5023056;28;20036;-57
2023/09/06 12:33:06;;;;;;;493.75;449.25;;;;;;;;;;5031193;28;19909;-57
2023/09/06 12:35:38;;;;;;;588.67;529.30;;;;;;;;;;5023425;28;20040;-57
2023/09/06 12:38:03;;;;;;;;;;;;;;;;;;5052495;28;20044;-57
2023/09/06 12:40:31;;;;;;;556.65;503.15;;;;;;;;;;5030284;28;19909;-58
2023/09/06 12:42:57;;;;;;;547.60;495.33;;;;;;;;;;5012009;28;20033;-58
2023/09/06 12:45:22;;;;;;;;;;;;;;;;;;5012469;28;20018;-57
2023/09/06 12:47:47;;;;;;;544.67;496.13;;;;;;;;;;5012677;28;19972;-56
2023/09/06 12:50:12;;;;;;;;;;;;;;;;;;5026772;28;20014;-57
2023/09/06 12:52:37;;;;;;;574.35;525.47;;;;;;;;;;5026975;28;19913;-57
2023/09/06 12:55:05;;;;;;;;;;;;;;;;;;5051417;28;20021;-58
2023/09/06 12:57:31;;;;;;;642.33;589.78;;;;;;;;;;5026289;28;20383;-57
2023/09/06 12:59:56;;;;;;;436.60;394.10;;;;;;;;;;5021713;28;20018;-58
2023/09/06 13:02:25;;;;;;;480.27;433.53;;;;;;;;;;5044501;28;20013;-58
2023/09/06 13:04:50;;;;;;;499.08;453.10;;;;;;;;;;5023152;28;20063;-58
2023/09/06 13:07:15;;;;;;;;;;;;;;;;;;5029725;28;20045;-58
2023/09/06 13:09:40;;;;;;;565.65;517.95;;;;;;;;;;5029754;28;20375;-60
2023/09/06 13:12:05;;;;;;;438.63;399.27;;;;;;;;;;5036671;28;20021;-58
2023/09/06 13:14:31;;;;;;;;;;;;;;;;;;5028745;28;20478;-57
2023/09/06 13:16:56;;;;;;;640.95;576.35;;;;;;;;;;5020918;28;20332;-58
2023/09/06 13:19:21;;;;;;;;;;;;;;;;;;5035539;28;20540;-58
2023/09/06 13:21:46;;;;;;;352.02;319.77;;;;;;;;;;5023627;28;19905;-58
2023/09/06 13:24:12;;;;;;;398.17;366.23;;;;;;;;;;5030961;28;20095;-58
2023/09/06 13:26:38;;;;;;;458.38;419.05;;;;;;;;;;5016173;28;20045;-57
2023/09/06 13:29:04;;;;;;;591.85;543.20;;;;;;;;;;5022426;28;20026;-57
2023/09/06 13:31:30;;;;;;;425.05;385.20;;;;;;;;;;5023270;28;20395;-56
2023/09/06 13:33:55;;;;;;;;;;;;;;;;;;5021966;28;20026;-57
2023/09/06 13:36:21;;;;;;;537.97;485.38;;;;;;;;;;5017862;28;19913;-58
2023/09/06 13:38:46;;;;;;;;;;;;;;;;;;5014739;28;20108;-58
2023/09/06 13:41:11;;;;;;;418.30;381.40;;;;;;;;;;5015101;28;19905;-57
2023/09/06 13:43:37;;;;;;;;;;;;;;;;;;5018883;28;20030;-59
2023/09/06 13:46:02;;;;;;;437.38;401.08;;;;;;;;;;5009367;28;19996;-57
2023/09/06 13:48:27;;;;;;;;;;;;;;;;;;5012466;28;20037;-58
2023/09/06 13:50:52;;;;;;;630.15;569.03;;;;;;;;;;5018107;28;19909;-58
2023/09/06 13:53:17;;;;;;;516.73;471.53;;;;;;;;;;5018710;28;20032;-59
2023/09/06 13:55:43;;;;;;;;;;;;;;;;;;5026424;28;20086;-58
2023/09/06 13:58:08;;;;;;;370.40;333.40;;;;;;;;;;5032843;28;19913;-58
2023/09/06 14:00:33;;;;;;;;;;;;;;;;;;5022621;28;20519;-58
2023/09/06 14:02:58;;;;;;;610.88;555.25;;;;;;;;;;5024974;28;19962;-58